CPA364 VHHH-ZSPD
Flight info
| Callsign | CPA364 |
|---|---|
| Flight time | 1h 46m |
| Altitude | 39100 |
| Route | LEKEN V601 DOTMI/K0915S1130 A470 LJG B221 SHZ W58 BK BK81A |
| Aircraft | A359/H-SDE2E3GHIJ3J4J5LM1ORWXY/LB1D1 |
Departure
| Time | 2026-04-30 09:22 |
|---|---|
| Airport | Hong Kong International Airport (VHHH) |
Arrival
| Time | 2026-04-30 11:08 |
|---|---|
| Airport | Shanghai Pudong International Airport (ZSPD) |
| Time | Latitude | Longitude | Altitude | Speed | Heading |
|---|---|---|---|---|---|
| 2026-04-30 09:00 | 22.31080 | 113.92553 | 42 ft | 0 kts | 115° |
| 2026-04-30 09:10 | 22.31083 | 113.92548 | 40 ft | 4 kts | 115° |
| 2026-04-30 09:10 | 22.31093 | 113.92521 | 40 ft | 4 kts | 108° |
| 2026-04-30 09:11 | 22.31101 | 113.92493 | 40 ft | 4 kts | 110° |
| 2026-04-30 09:11 | 22.31113 | 113.92470 | 36 ft | 4 kts | 152° |
| 2026-04-30 09:11 | 22.31134 | 113.92462 | 38 ft | 4 kts | 191° |
| 2026-04-30 09:11 | 22.31155 | 113.92475 | 38 ft | 4 kts | 223° |
| 2026-04-30 09:12 | 22.31166 | 113.92485 | 38 ft | 0 kts | 205° |
| 2026-04-30 09:15 | 22.31165 | 113.92485 | 38 ft | 0 kts | 205° |
| 2026-04-30 09:15 | 22.31146 | 113.92475 | 37 ft | 8 kts | 204° |
| 2026-04-30 09:15 | 22.31059 | 113.92439 | 41 ft | 17 kts | 203° |
| 2026-04-30 09:16 | 22.30946 | 113.92381 | 41 ft | 19 kts | 205° |
| 2026-04-30 09:16 | 22.30836 | 113.92328 | 41 ft | 16 kts | 191° |
| 2026-04-30 09:16 | 22.30727 | 113.92330 | 41 ft | 13 kts | 218° |
| 2026-04-30 09:16 | 22.30689 | 113.92237 | 41 ft | 15 kts | 251° |
| 2026-04-30 09:17 | 22.30652 | 113.92124 | 41 ft | 18 kts | 250° |
| 2026-04-30 09:17 | 22.30605 | 113.91980 | 41 ft | 23 kts | 251° |
| 2026-04-30 09:17 | 22.30549 | 113.91805 | 41 ft | 27 kts | 251° |
| 2026-04-30 09:17 | 22.30487 | 113.91612 | 42 ft | 28 kts | 251° |
| 2026-04-30 09:18 | 22.30422 | 113.91412 | 42 ft | 29 kts | 251° |
| 2026-04-30 09:18 | 22.30355 | 113.91205 | 42 ft | 30 kts | 250° |
| 2026-04-30 09:18 | 22.30286 | 113.90992 | 42 ft | 30 kts | 251° |
| 2026-04-30 09:18 | 22.30216 | 113.90773 | 42 ft | 31 kts | 251° |
| 2026-04-30 09:19 | 22.30144 | 113.90549 | 42 ft | 32 kts | 251° |
| 2026-04-30 09:19 | 22.30076 | 113.90342 | 39 ft | 26 kts | 251° |
| 2026-04-30 09:19 | 22.30017 | 113.90158 | 42 ft | 27 kts | 251° |
| 2026-04-30 09:19 | 22.29955 | 113.89963 | 42 ft | 28 kts | 251° |
| 2026-04-30 09:20 | 22.29914 | 113.89839 | 42 ft | 12 kts | 250° |
| 2026-04-30 09:20 | 22.29879 | 113.89752 | 42 ft | 13 kts | 232° |
| 2026-04-30 09:20 | 22.29795 | 113.89749 | 42 ft | 13 kts | 160° |
| 2026-04-30 09:20 | 22.29705 | 113.89785 | 42 ft | 15 kts | 160° |
| 2026-04-30 09:21 | 22.29644 | 113.89865 | 42 ft | 15 kts | 88° |
| 2026-04-30 09:21 | 22.29684 | 113.89994 | 42 ft | 27 kts | 70° |
| 2026-04-30 09:21 | 22.29832 | 113.90446 | 42 ft | 100 kts | 71° |
| 2026-04-30 09:21 | 22.30131 | 113.91379 | 42 ft | 161 kts | 71° |
| 2026-04-30 09:22 | 22.30513 | 113.92626 | 537 ft | 172 kts | 71° |
| 2026-04-30 09:22 | 22.30857 | 113.93810 | 1558 ft | 160 kts | 69° |
| 2026-04-30 09:22 | 22.31210 | 113.94955 | 2271 ft | 165 kts | 69° |
| 2026-04-30 09:22 | 22.31618 | 113.96160 | 2740 ft | 177 kts | 68° |
| 2026-04-30 09:23 | 22.32050 | 113.97429 | 3281 ft | 188 kts | 68° |
| 2026-04-30 09:23 | 22.32526 | 113.98809 | 3806 ft | 200 kts | 66° |
| 2026-04-30 09:23 | 22.33003 | 114.00256 | 4250 ft | 216 kts | 68° |
| 2026-04-30 09:23 | 22.33504 | 114.01835 | 4794 ft | 228 kts | 70° |
| 2026-04-30 09:24 | 22.33812 | 114.03532 | 5445 ft | 235 kts | 86° |
| 2026-04-30 09:24 | 22.33581 | 114.05305 | 6110 ft | 244 kts | 109° |
| 2026-04-30 09:24 | 22.32723 | 114.06891 | 6812 ft | 246 kts | 134° |
| 2026-04-30 09:24 | 22.31386 | 114.08048 | 7463 ft | 252 kts | 154° |
| 2026-04-30 09:25 | 22.29712 | 114.08692 | 8038 ft | 259 kts | 174° |
| 2026-04-30 09:25 | 22.27910 | 114.08804 | 8806 ft | 262 kts | 185° |
| 2026-04-30 09:25 | 22.26033 | 114.08761 | 9341 ft | 277 kts | 186° |
| 2026-04-30 09:25 | 22.24082 | 114.08713 | 10041 ft | 284 kts | 185° |
| 2026-04-30 09:26 | 22.22061 | 114.08675 | 10518 ft | 300 kts | 185° |
| 2026-04-30 09:26 | 22.19908 | 114.08648 | 10861 ft | 319 kts | 184° |
| 2026-04-30 09:26 | 22.17634 | 114.08987 | 11167 ft | 345 kts | 166° |
| 2026-04-30 09:26 | 22.15494 | 114.10331 | 11465 ft | 370 kts | 141° |
| 2026-04-30 09:27 | 22.13929 | 114.12566 | 11873 ft | 387 kts | 120° |
| 2026-04-30 09:27 | 22.12742 | 114.15201 | 12431 ft | 394 kts | 117° |
| 2026-04-30 09:27 | 22.11555 | 114.17887 | 13001 ft | 399 kts | 117° |
| 2026-04-30 09:27 | 22.10320 | 114.20599 | 13582 ft | 404 kts | 118° |
| 2026-04-30 09:28 | 22.09049 | 114.23331 | 14100 ft | 409 kts | 118° |
| 2026-04-30 09:28 | 22.07561 | 114.25938 | 14609 ft | 409 kts | 132° |
| 2026-04-30 09:28 | 22.05478 | 114.28011 | 15143 ft | 407 kts | 146° |
| 2026-04-30 09:28 | 22.03192 | 114.29835 | 15648 ft | 410 kts | 147° |
| 2026-04-30 09:29 | 22.00866 | 114.31643 | 16190 ft | 413 kts | 147° |
| 2026-04-30 09:29 | 21.98529 | 114.33467 | 16699 ft | 417 kts | 147° |
| 2026-04-30 09:29 | 21.96175 | 114.35311 | 17238 ft | 420 kts | 147° |
| 2026-04-30 09:29 | 21.93808 | 114.37177 | 17752 ft | 423 kts | 147° |
| 2026-04-30 09:30 | 21.91417 | 114.39056 | 18253 ft | 427 kts | 147° |
| 2026-04-30 09:30 | 21.89077 | 114.41049 | 18729 ft | 432 kts | 140° |
| 2026-04-30 09:30 | 21.87106 | 114.43517 | 19173 ft | 440 kts | 126° |
| 2026-04-30 09:30 | 21.85764 | 114.46453 | 19611 ft | 447 kts | 110° |
| 2026-04-30 09:31 | 21.85151 | 114.49746 | 20049 ft | 451 kts | 94° |
| 2026-04-30 09:31 | 21.85316 | 114.53132 | 20516 ft | 454 kts | 82° |
| 2026-04-30 09:31 | 21.85674 | 114.56519 | 20957 ft | 458 kts | 84° |
| 2026-04-30 09:31 | 21.85973 | 114.59942 | 21403 ft | 461 kts | 85° |
| 2026-04-30 09:32 | 21.86253 | 114.63393 | 21869 ft | 464 kts | 85° |
| 2026-04-30 09:32 | 21.86525 | 114.66866 | 22316 ft | 467 kts | 85° |
| 2026-04-30 09:32 | 21.86794 | 114.70361 | 22761 ft | 470 kts | 85° |
| 2026-04-30 09:32 | 21.87062 | 114.73885 | 23201 ft | 473 kts | 85° |
| 2026-04-30 09:33 | 21.87331 | 114.77433 | 23621 ft | 476 kts | 85° |
| 2026-04-30 09:33 | 21.87596 | 114.80958 | 23968 ft | 479 kts | 85° |
| 2026-04-30 09:33 | 21.87868 | 114.84594 | 24335 ft | 482 kts | 85° |
| 2026-04-30 09:33 | 21.88135 | 114.88164 | 24720 ft | 485 kts | 85° |
| 2026-04-30 09:34 | 21.88405 | 114.91791 | 25128 ft | 488 kts | 85° |
| 2026-04-30 09:34 | 21.88621 | 114.95455 | 25556 ft | 491 kts | 87° |
| 2026-04-30 09:34 | 21.88746 | 114.99134 | 25994 ft | 494 kts | 88° |
| 2026-04-30 09:34 | 21.88833 | 115.02848 | 26442 ft | 497 kts | 89° |
| 2026-04-30 09:35 | 21.88914 | 115.06590 | 26897 ft | 501 kts | 89° |
| 2026-04-30 09:35 | 21.89002 | 115.10344 | 27329 ft | 504 kts | 88° |
| 2026-04-30 09:35 | 21.89101 | 115.14138 | 27771 ft | 507 kts | 88° |
| 2026-04-30 09:35 | 21.89210 | 115.17947 | 28205 ft | 511 kts | 88° |
| 2026-04-30 09:36 | 21.89325 | 115.21789 | 28637 ft | 514 kts | 88° |
| 2026-04-30 09:36 | 21.89444 | 115.25652 | 29059 ft | 517 kts | 88° |
| 2026-04-30 09:36 | 21.89566 | 115.29541 | 29473 ft | 520 kts | 88° |
| 2026-04-30 09:36 | 21.89687 | 115.33447 | 29874 ft | 524 kts | 88° |
| 2026-04-30 09:37 | 21.89804 | 115.37332 | 30278 ft | 526 kts | 88° |
| 2026-04-30 09:37 | 21.89920 | 115.41277 | 30597 ft | 529 kts | 88° |
| 2026-04-30 09:37 | 21.90036 | 115.45249 | 30904 ft | 532 kts | 88° |
| 2026-04-30 09:37 | 21.90151 | 115.49238 | 31220 ft | 535 kts | 88° |
| 2026-04-30 09:38 | 21.90266 | 115.53253 | 31514 ft | 537 kts | 88° |
| 2026-04-30 09:38 | 21.90382 | 115.57286 | 31814 ft | 540 kts | 88° |
| 2026-04-30 09:38 | 21.90571 | 115.61326 | 32084 ft | 543 kts | 84° |
| 2026-04-30 09:38 | 21.91166 | 115.65348 | 32363 ft | 544 kts | 79° |
| 2026-04-30 09:39 | 21.91905 | 115.69356 | 32678 ft | 546 kts | 78° |
| 2026-04-30 09:39 | 21.92695 | 115.73350 | 33082 ft | 545 kts | 77° |
| 2026-04-30 09:39 | 21.93509 | 115.77338 | 33458 ft | 545 kts | 77° |
| 2026-04-30 09:39 | 21.94331 | 115.81321 | 33858 ft | 544 kts | 77° |
| 2026-04-30 09:40 | 21.95149 | 115.85296 | 34211 ft | 543 kts | 77° |
| 2026-04-30 09:40 | 21.95962 | 115.89273 | 34560 ft | 543 kts | 77° |
| 2026-04-30 09:40 | 21.96767 | 115.93233 | 34879 ft | 542 kts | 77° |
| 2026-04-30 09:40 | 21.97570 | 115.97208 | 35180 ft | 542 kts | 77° |
| 2026-04-30 09:41 | 21.98359 | 116.01126 | 35429 ft | 543 kts | 77° |
| 2026-04-30 09:41 | 21.99171 | 116.05149 | 35753 ft | 542 kts | 77° |
| 2026-04-30 09:41 | 22.00222 | 116.08983 | 36060 ft | 540 kts | 68° |
| 2026-04-30 09:41 | 22.01798 | 116.12637 | 36334 ft | 536 kts | 58° |
| 2026-04-30 09:42 | 22.03902 | 116.15935 | 36613 ft | 532 kts | 47° |
| 2026-04-30 09:42 | 22.06481 | 116.18763 | 36896 ft | 526 kts | 36° |
| 2026-04-30 09:42 | 22.09434 | 116.21028 | 37167 ft | 519 kts | 25° |
| 2026-04-30 09:42 | 22.12667 | 116.22690 | 37437 ft | 511 kts | 15° |
| 2026-04-30 09:43 | 22.16072 | 116.23726 | 37688 ft | 504 kts | 5° |
| 2026-04-30 09:43 | 22.19529 | 116.24128 | 37930 ft | 497 kts | 356° |
| 2026-04-30 09:43 | 22.22951 | 116.23917 | 38182 ft | 489 kts | 346° |
| 2026-04-30 09:43 | 22.26242 | 116.23132 | 38436 ft | 481 kts | 337° |
| 2026-04-30 09:44 | 22.29291 | 116.21838 | 38676 ft | 474 kts | 329° |
| 2026-04-30 09:44 | 22.32247 | 116.20277 | 38873 ft | 475 kts | 332° |
| 2026-04-30 09:44 | 22.35355 | 116.19011 | 39052 ft | 479 kts | 338° |
| 2026-04-30 09:44 | 22.38618 | 116.18184 | 39115 ft | 486 kts | 346° |
| 2026-04-30 09:45 | 22.45391 | 116.17615 | 39130 ft | 490 kts | 353° |
| 2026-04-30 09:45 | 22.52217 | 116.17400 | 39120 ft | 491 kts | 354° |
| 2026-04-30 09:46 | 22.57913 | 116.17258 | 39120 ft | 491 kts | 354° |
| 2026-04-30 09:46 | 22.65870 | 116.17133 | 39122 ft | 494 kts | 359° |
| 2026-04-30 09:47 | 22.72662 | 116.18656 | 39130 ft | 506 kts | 17° |
| 2026-04-30 09:47 | 22.75847 | 116.20334 | 39128 ft | 512 kts | 28° |
| 2026-04-30 09:47 | 22.78802 | 116.22505 | 39121 ft | 515 kts | 32° |
| 2026-04-30 09:48 | 22.83610 | 116.26429 | 39130 ft | 516 kts | 34° |
| 2026-04-30 09:48 | 22.89254 | 116.31201 | 39130 ft | 518 kts | 34° |
| 2026-04-30 09:49 | 22.94954 | 116.35996 | 39135 ft | 519 kts | 34° |
| 2026-04-30 09:49 | 23.00678 | 116.40753 | 39127 ft | 518 kts | 33° |
| 2026-04-30 09:50 | 23.06427 | 116.45491 | 39123 ft | 518 kts | 33° |
| 2026-04-30 09:50 | 23.12171 | 116.50231 | 39134 ft | 518 kts | 33° |
| 2026-04-30 09:51 | 23.17909 | 116.54980 | 39123 ft | 518 kts | 34° |
| 2026-04-30 09:51 | 23.23653 | 116.59743 | 39128 ft | 519 kts | 33° |
| 2026-04-30 09:52 | 23.29362 | 116.64481 | 39125 ft | 519 kts | 33° |
| 2026-04-30 09:52 | 23.35108 | 116.69255 | 39122 ft | 519 kts | 34° |
| 2026-04-30 09:53 | 23.40840 | 116.74024 | 39122 ft | 519 kts | 34° |
| 2026-04-30 09:53 | 23.46270 | 116.79258 | 39135 ft | 523 kts | 42° |
| 2026-04-30 09:54 | 23.51364 | 116.84936 | 39130 ft | 523 kts | 43° |
| 2026-04-30 09:54 | 23.56361 | 116.90635 | 39131 ft | 524 kts | 43° |
| 2026-04-30 09:55 | 23.61413 | 116.96402 | 39130 ft | 525 kts | 43° |
| 2026-04-30 09:55 | 23.66473 | 117.02168 | 39135 ft | 525 kts | 43° |
| 2026-04-30 09:56 | 23.71524 | 117.07922 | 39154 ft | 525 kts | 43° |
| 2026-04-30 09:56 | 23.76545 | 117.13646 | 39137 ft | 524 kts | 43° |
| 2026-04-30 09:57 | 23.81813 | 117.19139 | 39126 ft | 522 kts | 38° |
| 2026-04-30 09:57 | 23.87324 | 117.24333 | 39130 ft | 524 kts | 37° |
| 2026-04-30 09:58 | 23.92824 | 117.29561 | 39134 ft | 524 kts | 38° |
| 2026-04-30 09:58 | 23.98282 | 117.34858 | 39133 ft | 524 kts | 38° |
| 2026-04-30 09:59 | 24.09149 | 117.45519 | 39132 ft | 524 kts | 39° |
| 2026-04-30 10:00 | 24.16971 | 117.53868 | 39133 ft | 529 kts | 44° |
| 2026-04-30 10:01 | 24.24434 | 117.62802 | 39130 ft | 529 kts | 45° |
| 2026-04-30 10:02 | 24.31869 | 117.71766 | 39125 ft | 529 kts | 45° |
| 2026-04-30 10:02 | 24.36831 | 117.77741 | 39127 ft | 529 kts | 45° |
| 2026-04-30 10:03 | 24.41789 | 117.83715 | 39145 ft | 529 kts | 45° |
| 2026-04-30 10:03 | 24.46710 | 117.89652 | 39116 ft | 528 kts | 45° |
| 2026-04-30 10:04 | 24.51650 | 117.95618 | 39118 ft | 527 kts | 45° |
| 2026-04-30 10:04 | 24.56586 | 118.01588 | 39119 ft | 528 kts | 45° |
| 2026-04-30 10:05 | 24.61621 | 118.07461 | 39115 ft | 527 kts | 43° |
| 2026-04-30 10:05 | 24.66783 | 118.13233 | 39134 ft | 531 kts | 42° |
| 2026-04-30 10:06 | 24.71906 | 118.18999 | 39131 ft | 531 kts | 43° |
| 2026-04-30 10:06 | 24.77043 | 118.24840 | 39140 ft | 530 kts | 43° |
| 2026-04-30 10:07 | 24.82168 | 118.30686 | 39143 ft | 530 kts | 43° |
| 2026-04-30 10:07 | 24.87299 | 118.36551 | 39159 ft | 531 kts | 43° |
| 2026-04-30 10:08 | 24.92426 | 118.42417 | 39148 ft | 533 kts | 43° |
| 2026-04-30 10:08 | 24.97536 | 118.48270 | 39153 ft | 533 kts | 43° |
| 2026-04-30 10:09 | 25.02677 | 118.54169 | 39156 ft | 533 kts | 43° |
| 2026-04-30 10:09 | 25.07820 | 118.60077 | 39156 ft | 533 kts | 43° |
| 2026-04-30 10:10 | 25.12924 | 118.66035 | 39161 ft | 533 kts | 44° |
| 2026-04-30 10:10 | 25.17924 | 118.72108 | 39178 ft | 536 kts | 45° |
| 2026-04-30 10:11 | 25.22907 | 118.78177 | 39175 ft | 537 kts | 45° |
| 2026-04-30 10:11 | 25.27940 | 118.84278 | 39180 ft | 537 kts | 45° |
| 2026-04-30 10:12 | 25.32981 | 118.90382 | 39179 ft | 537 kts | 45° |
| 2026-04-30 10:12 | 25.38055 | 118.96446 | 39178 ft | 536 kts | 44° |
| 2026-04-30 10:13 | 25.43223 | 119.02438 | 39188 ft | 540 kts | 43° |
| 2026-04-30 10:13 | 25.48414 | 119.08461 | 39186 ft | 541 kts | 44° |
| 2026-04-30 10:14 | 25.53554 | 119.14465 | 39205 ft | 541 kts | 43° |
| 2026-04-30 10:14 | 25.61291 | 119.23537 | 39194 ft | 539 kts | 43° |
| 2026-04-30 10:15 | 25.66449 | 119.29593 | 39199 ft | 542 kts | 44° |
| 2026-04-30 10:15 | 25.71749 | 119.35551 | 39200 ft | 540 kts | 36° |
| 2026-04-30 10:16 | 25.74785 | 119.37968 | 39233 ft | 533 kts | 25° |
| 2026-04-30 10:16 | 25.78085 | 119.39750 | 39210 ft | 523 kts | 14° |
| 2026-04-30 10:17 | 25.88372 | 119.43471 | 39202 ft | 519 kts | 11° |
| 2026-04-30 10:17 | 25.98760 | 119.46917 | 39205 ft | 519 kts | 11° |
| 2026-04-30 10:18 | 26.05665 | 119.49252 | 39211 ft | 518 kts | 11° |
| 2026-04-30 10:19 | 26.16000 | 119.52777 | 39216 ft | 517 kts | 11° |
| 2026-04-30 10:19 | 26.22777 | 119.55581 | 39217 ft | 528 kts | 22° |
| 2026-04-30 10:20 | 26.29156 | 119.59743 | 39221 ft | 533 kts | 26° |
| 2026-04-30 10:20 | 26.38576 | 119.66385 | 39219 ft | 534 kts | 27° |
| 2026-04-30 10:21 | 26.44810 | 119.70788 | 39221 ft | 534 kts | 27° |
| 2026-04-30 10:21 | 26.51096 | 119.75219 | 39223 ft | 534 kts | 26° |
| 2026-04-30 10:22 | 26.57414 | 119.79657 | 39210 ft | 536 kts | 26° |
| 2026-04-30 10:22 | 26.63736 | 119.84084 | 39216 ft | 537 kts | 27° |
| 2026-04-30 10:23 | 26.70071 | 119.88533 | 39257 ft | 537 kts | 26° |
| 2026-04-30 10:23 | 26.76401 | 119.92993 | 39212 ft | 539 kts | 26° |
| 2026-04-30 10:24 | 26.82760 | 119.97481 | 39220 ft | 540 kts | 26° |
| 2026-04-30 10:24 | 26.89072 | 120.01942 | 39222 ft | 540 kts | 26° |
| 2026-04-30 10:25 | 26.95427 | 120.06446 | 39227 ft | 540 kts | 26° |
| 2026-04-30 10:25 | 27.01780 | 120.10960 | 39214 ft | 540 kts | 26° |
| 2026-04-30 10:26 | 27.08143 | 120.15481 | 39218 ft | 542 kts | 26° |
| 2026-04-30 10:26 | 27.14186 | 120.19781 | 39219 ft | 543 kts | 26° |
| 2026-04-30 10:27 | 27.18708 | 120.22981 | 39226 ft | 543 kts | 26° |
| 2026-04-30 10:27 | 27.25120 | 120.27496 | 39219 ft | 544 kts | 26° |
| 2026-04-30 10:28 | 27.31493 | 120.31993 | 39218 ft | 544 kts | 26° |
| 2026-04-30 10:28 | 27.37897 | 120.36527 | 39253 ft | 544 kts | 26° |
| 2026-04-30 10:29 | 27.44309 | 120.41090 | 39211 ft | 546 kts | 26° |
| 2026-04-30 10:29 | 27.50744 | 120.45666 | 39221 ft | 548 kts | 26° |
| 2026-04-30 10:30 | 27.57186 | 120.50255 | 39219 ft | 548 kts | 26° |
| 2026-04-30 10:30 | 27.63634 | 120.54858 | 39220 ft | 548 kts | 26° |
| 2026-04-30 10:31 | 27.70072 | 120.59454 | 39214 ft | 546 kts | 26° |
| 2026-04-30 10:31 | 27.73412 | 120.61437 | 39219 ft | 537 kts | 15° |
| 2026-04-30 10:31 | 27.76868 | 120.62770 | 39220 ft | 524 kts | 5° |
| 2026-04-30 10:32 | 27.83979 | 120.63915 | 39233 ft | 513 kts | 356° |
| 2026-04-30 10:32 | 27.91099 | 120.64579 | 39222 ft | 512 kts | 355° |
| 2026-04-30 10:33 | 27.98218 | 120.65184 | 39218 ft | 512 kts | 355° |
| 2026-04-30 10:33 | 28.05328 | 120.65827 | 39222 ft | 513 kts | 355° |
| 2026-04-30 10:34 | 28.11215 | 120.66400 | 39225 ft | 513 kts | 355° |
| 2026-04-30 10:34 | 28.19551 | 120.67222 | 39222 ft | 514 kts | 355° |
| 2026-04-30 10:35 | 28.25490 | 120.67808 | 39220 ft | 514 kts | 355° |
| 2026-04-30 10:35 | 28.32618 | 120.68510 | 39271 ft | 515 kts | 355° |
| 2026-04-30 10:36 | 28.39762 | 120.69196 | 39223 ft | 514 kts | 355° |
| 2026-04-30 10:36 | 28.46861 | 120.69890 | 39228 ft | 515 kts | 355° |
| 2026-04-30 10:37 | 28.53987 | 120.70613 | 39234 ft | 515 kts | 355° |
| 2026-04-30 10:37 | 28.61118 | 120.71349 | 39235 ft | 512 kts | 354° |
| 2026-04-30 10:38 | 28.68189 | 120.72075 | 39229 ft | 509 kts | 354° |
| 2026-04-30 10:38 | 28.75243 | 120.72819 | 39227 ft | 509 kts | 354° |
| 2026-04-30 10:39 | 28.82297 | 120.73596 | 39279 ft | 509 kts | 354° |
| 2026-04-30 10:39 | 28.89319 | 120.74380 | 39228 ft | 503 kts | 353° |
| 2026-04-30 10:40 | 28.96274 | 120.75099 | 39226 ft | 501 kts | 353° |
| 2026-04-30 10:40 | 29.03189 | 120.75790 | 39228 ft | 501 kts | 353° |
| 2026-04-30 10:41 | 29.10142 | 120.76497 | 39235 ft | 501 kts | 353° |
| 2026-04-30 10:41 | 29.17083 | 120.77212 | 38943 ft | 500 kts | 353° |
| 2026-04-30 10:42 | 29.20554 | 120.77569 | 38698 ft | 501 kts | 353° |
| 2026-04-30 10:42 | 29.24035 | 120.77929 | 38432 ft | 502 kts | 353° |
| 2026-04-30 10:42 | 29.27513 | 120.78288 | 38165 ft | 502 kts | 353° |
| 2026-04-30 10:42 | 29.30995 | 120.78649 | 37961 ft | 502 kts | 353° |
| 2026-04-30 10:43 | 29.34481 | 120.79011 | 37713 ft | 503 kts | 352° |
| 2026-04-30 10:43 | 29.37972 | 120.79376 | 37446 ft | 503 kts | 352° |
| 2026-04-30 10:43 | 29.41459 | 120.79741 | 37178 ft | 504 kts | 352° |
| 2026-04-30 10:43 | 29.44949 | 120.80107 | 36740 ft | 500 kts | 352° |
| 2026-04-30 10:44 | 29.48409 | 120.80471 | 36098 ft | 499 kts | 352° |
| 2026-04-30 10:44 | 29.51869 | 120.80832 | 35419 ft | 499 kts | 352° |
| 2026-04-30 10:44 | 29.55303 | 120.81517 | 34728 ft | 520 kts | 2° |
| 2026-04-30 10:44 | 29.58771 | 120.83060 | 33790 ft | 550 kts | 17° |
| 2026-04-30 10:45 | 29.62005 | 120.85598 | 32786 ft | 577 kts | 32° |
| 2026-04-30 10:45 | 29.64784 | 120.89041 | 31827 ft | 598 kts | 47° |
| 2026-04-30 10:45 | 29.67068 | 120.93085 | 30984 ft | 604 kts | 53° |
| 2026-04-30 10:45 | 29.69248 | 120.97244 | 29982 ft | 607 kts | 53° |
| 2026-04-30 10:46 | 29.71468 | 121.01366 | 28971 ft | 606 kts | 52° |
| 2026-04-30 10:46 | 29.73723 | 121.05434 | 28391 ft | 598 kts | 51° |
| 2026-04-30 10:46 | 29.75947 | 121.09421 | 28009 ft | 586 kts | 51° |
| 2026-04-30 10:46 | 29.78147 | 121.13328 | 27333 ft | 579 kts | 50° |
| 2026-04-30 10:47 | 29.80344 | 121.17166 | 26602 ft | 572 kts | 50° |
| 2026-04-30 10:47 | 29.82489 | 121.20926 | 25970 ft | 566 kts | 50° |
| 2026-04-30 10:47 | 29.84640 | 121.24697 | 25352 ft | 560 kts | 50° |
| 2026-04-30 10:47 | 29.86765 | 121.28424 | 24662 ft | 555 kts | 50° |
| 2026-04-30 10:48 | 29.88967 | 121.32017 | 24091 ft | 541 kts | 43° |
| 2026-04-30 10:48 | 29.91643 | 121.34926 | 23412 ft | 518 kts | 27° |
| 2026-04-30 10:48 | 29.94679 | 121.36998 | 22738 ft | 498 kts | 18° |
| 2026-04-30 10:48 | 29.97745 | 121.38779 | 22020 ft | 491 kts | 18° |
| 2026-04-30 10:49 | 30.00770 | 121.40561 | 21373 ft | 486 kts | 19° |
| 2026-04-30 10:49 | 30.03743 | 121.42359 | 20728 ft | 480 kts | 19° |
| 2026-04-30 10:49 | 30.06682 | 121.44164 | 20102 ft | 474 kts | 20° |
| 2026-04-30 10:49 | 30.09565 | 121.45950 | 19469 ft | 468 kts | 20° |
| 2026-04-30 10:50 | 30.12388 | 121.47715 | 18699 ft | 452 kts | 20° |
| 2026-04-30 10:50 | 30.15126 | 121.49433 | 17395 ft | 443 kts | 20° |
| 2026-04-30 10:50 | 30.17792 | 121.51106 | 16523 ft | 425 kts | 20° |
| 2026-04-30 10:50 | 30.20306 | 121.52695 | 16036 ft | 400 kts | 20° |
| 2026-04-30 10:51 | 30.22719 | 121.54212 | 15538 ft | 395 kts | 20° |
| 2026-04-30 10:51 | 30.25148 | 121.55727 | 15006 ft | 396 kts | 21° |
| 2026-04-30 10:51 | 30.27571 | 121.57264 | 14420 ft | 398 kts | 22° |
| 2026-04-30 10:51 | 30.29984 | 121.58824 | 13810 ft | 396 kts | 22° |
| 2026-04-30 10:52 | 30.32385 | 121.60382 | 13198 ft | 394 kts | 22° |
| 2026-04-30 10:52 | 30.34732 | 121.61905 | 12602 ft | 390 kts | 22° |
| 2026-04-30 10:52 | 30.37088 | 121.63435 | 12000 ft | 386 kts | 23° |
| 2026-04-30 10:52 | 30.39374 | 121.65003 | 11714 ft | 375 kts | 25° |
| 2026-04-30 10:53 | 30.41543 | 121.66556 | 11590 ft | 357 kts | 25° |
| 2026-04-30 10:53 | 30.43613 | 121.68031 | 11448 ft | 341 kts | 25° |
| 2026-04-30 10:53 | 30.45596 | 121.69437 | 11289 ft | 327 kts | 24° |
| 2026-04-30 10:53 | 30.47501 | 121.70784 | 11158 ft | 313 kts | 24° |
| 2026-04-30 10:54 | 30.49329 | 121.72073 | 11007 ft | 301 kts | 24° |
| 2026-04-30 10:54 | 30.51092 | 121.73249 | 10936 ft | 284 kts | 18° |
| 2026-04-30 10:54 | 30.52872 | 121.74126 | 10718 ft | 273 kts | 13° |
| 2026-04-30 10:54 | 30.54619 | 121.74897 | 10559 ft | 265 kts | 12° |
| 2026-04-30 10:55 | 30.56350 | 121.75633 | 10419 ft | 265 kts | 12° |
| 2026-04-30 10:55 | 30.58080 | 121.76358 | 10089 ft | 263 kts | 12° |
| 2026-04-30 10:55 | 30.59814 | 121.77076 | 9778 ft | 271 kts | 12° |
| 2026-04-30 10:55 | 30.61631 | 121.77820 | 9642 ft | 280 kts | 13° |
| 2026-04-30 10:56 | 30.63455 | 121.78575 | 9258 ft | 278 kts | 13° |
| 2026-04-30 10:56 | 30.65262 | 121.79324 | 8777 ft | 279 kts | 13° |
| 2026-04-30 10:56 | 30.67081 | 121.80081 | 8420 ft | 276 kts | 13° |
| 2026-04-30 10:56 | 30.68853 | 121.80823 | 8248 ft | 265 kts | 13° |
| 2026-04-30 10:57 | 30.70551 | 121.81530 | 8116 ft | 253 kts | 13° |
| 2026-04-30 10:57 | 30.72128 | 121.82392 | 7971 ft | 251 kts | 28° |
| 2026-04-30 10:57 | 30.73285 | 121.83915 | 7751 ft | 259 kts | 57° |
| 2026-04-30 10:57 | 30.73953 | 121.85880 | 7492 ft | 262 kts | 67° |
| 2026-04-30 10:58 | 30.74497 | 121.87894 | 7205 ft | 260 kts | 68° |
| 2026-04-30 10:58 | 30.75027 | 121.89878 | 6999 ft | 249 kts | 68° |
| 2026-04-30 10:58 | 30.75529 | 121.91741 | 6867 ft | 236 kts | 68° |
| 2026-04-30 10:58 | 30.76055 | 121.93523 | 6708 ft | 228 kts | 61° |
| 2026-04-30 10:59 | 30.76942 | 121.94920 | 6557 ft | 202 kts | 31° |
| 2026-04-30 10:59 | 30.78126 | 121.95398 | 6416 ft | 173 kts | 353° |
| 2026-04-30 10:59 | 30.79309 | 121.95259 | 6413 ft | 171 kts | 345° |
| 2026-04-30 10:59 | 30.80466 | 121.94961 | 6413 ft | 170 kts | 341° |
| 2026-04-30 11:00 | 30.81600 | 121.94579 | 6412 ft | 170 kts | 339° |
| 2026-04-30 11:00 | 30.82723 | 121.94165 | 6322 ft | 169 kts | 338° |
| 2026-04-30 11:00 | 30.83832 | 121.93747 | 6147 ft | 167 kts | 338° |
| 2026-04-30 11:00 | 30.84945 | 121.93329 | 5887 ft | 168 kts | 338° |
| 2026-04-30 11:01 | 30.86062 | 121.92909 | 5599 ft | 169 kts | 339° |
| 2026-04-30 11:01 | 30.87186 | 121.92487 | 5320 ft | 170 kts | 339° |
| 2026-04-30 11:01 | 30.88315 | 121.92062 | 5059 ft | 170 kts | 339° |
| 2026-04-30 11:01 | 30.89446 | 121.91637 | 4814 ft | 171 kts | 339° |
| 2026-04-30 11:02 | 30.90577 | 121.91211 | 4578 ft | 170 kts | 339° |
| 2026-04-30 11:02 | 30.91705 | 121.90786 | 4351 ft | 170 kts | 339° |
| 2026-04-30 11:02 | 30.92817 | 121.90368 | 4129 ft | 170 kts | 340° |
| 2026-04-30 11:02 | 30.93945 | 121.89943 | 3891 ft | 171 kts | 340° |
| 2026-04-30 11:03 | 30.95090 | 121.89511 | 3661 ft | 171 kts | 340° |
| 2026-04-30 11:03 | 30.96207 | 121.89091 | 3439 ft | 171 kts | 341° |
| 2026-04-30 11:03 | 30.97337 | 121.88665 | 3208 ft | 170 kts | 340° |
| 2026-04-30 11:04 | 30.99576 | 121.87821 | 2757 ft | 169 kts | 340° |
| 2026-04-30 11:04 | 31.00667 | 121.87410 | 2503 ft | 159 kts | 340° |
| 2026-04-30 11:04 | 31.01691 | 121.87024 | 2294 ft | 150 kts | 341° |
| 2026-04-30 11:04 | 31.02652 | 121.86661 | 2082 ft | 140 kts | 340° |
| 2026-04-30 11:05 | 31.03556 | 121.86320 | 1893 ft | 133 kts | 341° |
| 2026-04-30 11:05 | 31.04437 | 121.85987 | 1720 ft | 133 kts | 341° |
| 2026-04-30 11:05 | 31.05320 | 121.85653 | 1544 ft | 133 kts | 341° |
| 2026-04-30 11:05 | 31.06203 | 121.85320 | 1353 ft | 133 kts | 341° |
| 2026-04-30 11:06 | 31.07076 | 121.84987 | 1184 ft | 132 kts | 342° |
| 2026-04-30 11:06 | 31.07954 | 121.84656 | 1027 ft | 133 kts | 343° |
| 2026-04-30 11:06 | 31.08842 | 121.84323 | 896 ft | 135 kts | 343° |
| 2026-04-30 11:06 | 31.09725 | 121.83984 | 716 ft | 133 kts | 345° |
| 2026-04-30 11:07 | 31.10595 | 121.83649 | 544 ft | 133 kts | 346° |
| 2026-04-30 11:07 | 31.11482 | 121.83319 | 373 ft | 136 kts | 344° |
| 2026-04-30 11:07 | 31.12385 | 121.82982 | 164 ft | 136 kts | 345° |
| 2026-04-30 11:07 | 31.13281 | 121.82653 | 32 ft | 130 kts | 343° |
| 2026-04-30 11:08 | 31.13982 | 121.82389 | 27 ft | 82 kts | 342° |
| 2026-04-30 11:08 | 31.14375 | 121.82236 | 29 ft | 45 kts | 341° |
| 2026-04-30 11:08 | 31.14622 | 121.82137 | 27 ft | 26 kts | 333° |
| 2026-04-30 11:08 | 31.14741 | 121.82023 | 27 ft | 15 kts | 315° |
| 2026-04-30 11:09 | 31.14756 | 121.82006 | 27 ft | 0 kts | 315° |
| 2026-04-30 11:09 | 31.14784 | 121.81973 | 27 ft | 13 kts | 315° |
| 2026-04-30 11:09 | 31.14841 | 121.81906 | 27 ft | 12 kts | 314° |
| 2026-04-30 11:09 | 31.14909 | 121.81835 | 28 ft | 14 kts | 329° |
| 2026-04-30 11:10 | 31.14982 | 121.81770 | 28 ft | 13 kts | 285° |
| 2026-04-30 11:10 | 31.14967 | 121.81691 | 28 ft | 7 kts | 252° |
| 2026-04-30 11:10 | 31.14949 | 121.81626 | 28 ft | 10 kts | 252° |
| 2026-04-30 11:10 | 31.14923 | 121.81532 | 28 ft | 14 kts | 252° |
| 2026-04-30 11:11 | 31.14896 | 121.81434 | 28 ft | 13 kts | 252° |
| 2026-04-30 11:11 | 31.14844 | 121.81360 | 29 ft | 12 kts | 187° |
| 2026-04-30 11:11 | 31.14755 | 121.81385 | 29 ft | 8 kts | 162° |
| 2026-04-30 11:11 | 31.14753 | 121.81386 | 29 ft | 0 kts | 162° |
| 2026-04-30 11:12 | 31.14752 | 121.81386 | 29 ft | 1 kts | 162° |
| 2026-04-30 11:13 | 31.14706 | 121.81403 | 29 ft | 10 kts | 162° |
| 2026-04-30 11:13 | 31.14616 | 121.81437 | 28 ft | 15 kts | 162° |
| 2026-04-30 11:13 | 31.14525 | 121.81432 | 29 ft | 13 kts | 236° |
| 2026-04-30 11:13 | 31.14486 | 121.81321 | 29 ft | 16 kts | 250° |
| 2026-04-30 11:14 | 31.14450 | 121.81191 | 29 ft | 18 kts | 252° |
| 2026-04-30 11:14 | 31.14413 | 121.81059 | 29 ft | 14 kts | 252° |
| 2026-04-30 11:14 | 31.14386 | 121.80959 | 29 ft | 9 kts | 252° |
| 2026-04-30 11:14 | 31.14374 | 121.80916 | 29 ft | 7 kts | 252° |
| 2026-04-30 11:15 | 31.14360 | 121.80867 | 29 ft | 8 kts | 252° |
| 2026-04-30 11:15 | 31.14340 | 121.80793 | 29 ft | 11 kts | 252° |
| 2026-04-30 11:15 | 31.14289 | 121.80749 | 29 ft | 10 kts | 179° |
| 2026-04-30 11:15 | 31.14214 | 121.80774 | 29 ft | 12 kts | 162° |
| 2026-04-30 11:16 | 31.14141 | 121.80801 | 29 ft | 10 kts | 162° |
| 2026-04-30 11:16 | 31.14065 | 121.80829 | 29 ft | 13 kts | 162° |
| 2026-04-30 11:16 | 31.13980 | 121.80861 | 29 ft | 12 kts | 162° |
| 2026-04-30 11:16 | 31.13899 | 121.80890 | 29 ft | 11 kts | 169° |
| 2026-04-30 11:17 | 31.13842 | 121.80852 | 29 ft | 10 kts | 221° |
| 2026-04-30 11:17 | 31.13795 | 121.80845 | 29 ft | 7 kts | 170° |
| 2026-04-30 11:17 | 31.13759 | 121.80859 | 29 ft | 3 kts | 161° |
| 2026-04-30 11:17 | 31.13751 | 121.80862 | 29 ft | 0 kts | 161° |